Time;durP1;ratioP1;P1;durP2;ratioP2;P2;SDS_P1;SDS_P2;PMS_P1;PMS_P2;Temp;Humidity;BMP_temperature;BMP_pressure;BME280_temperature;BME280_humidity;BME280_pressure;Samples;Min_cycle;Max_cycle;Signal;HPM_P1;HPM_P2
2022/05/19 00:03:30;;;;;;;10.75;6.53;;;24.30;99.90;;;;;;5044017;28;20040;-86
2022/05/19 00:05:58;;;;;;;10.90;6.95;;;24.40;99.90;;;;;;5053775;28;20508;-87
2022/05/19 00:08:24;;;;;;;14.40;6.60;;;24.30;99.90;;;;;;5049495;28;20106;-87
2022/05/19 00:10:51;;;;;;;10.82;6.78;;;24.30;99.90;;;;;;5050264;28;20116;-87
2022/05/19 00:13:16;;;;;;;9.50;6.85;;;24.30;99.90;;;;;;5038547;28;20036;-87
2022/05/19 00:15:42;;;;;;;10.38;6.90;;;24.20;99.90;;;;;;5039463;28;20441;-87
2022/05/19 00:18:08;;;;;;;10.63;6.95;;;24.10;99.90;;;;;;5039135;28;20409;-87
2022/05/19 00:20:33;;;;;;;12.85;6.80;;;24.20;99.90;;;;;;5042253;28;20034;-87
2022/05/19 00:22:59;;;;;;;11.25;7.75;;;24.10;99.90;;;;;;5051130;28;20024;-87
2022/05/19 00:25:25;;;;;;;11.63;7.30;;;24.00;99.90;;;;;;5081787;28;20025;-87
2022/05/19 00:27:50;;;;;;;14.98;7.50;;;23.90;99.90;;;;;;5047044;28;20040;-87
2022/05/19 00:30:16;;;;;;;12.68;6.93;;;23.90;99.90;;;;;;5046966;28;20047;-87
2022/05/19 00:32:41;;;;;;;10.63;6.85;;;23.80;99.90;;;;;;5045931;28;20038;-87
2022/05/19 00:35:08;;;;;;;11.30;7.10;;;23.70;99.90;;;;;;5051185;28;20512;-87
2022/05/19 00:37:33;;;;;;;11.95;7.32;;;23.70;99.90;;;;;;5037923;28;20017;-87
2022/05/19 00:39:59;;;;;;;11.23;7.28;;;23.70;99.90;;;;;;5038424;28;20045;-87
2022/05/19 00:42:43;;;;;;;16.38;7.00;;;23.70;99.90;;;;;;5047484;28;20033;-87
2022/05/19 00:45:29;;;;;;;12.05;6.95;;;23.60;99.90;;;;;;5047105;28;20117;-87
2022/05/19 00:48:08;;;;;;;9.48;6.85;;;23.60;99.90;;;;;;5038174;28;20029;-87
2022/05/19 00:50:57;;;;;;;12.85;7.30;;;23.60;99.90;;;;;;5041330;28;20038;-87
2022/05/19 00:53:35;;;;;;;10.60;7.03;;;23.50;99.90;;;;;;5035528;28;20490;-87
2022/05/19 00:56:09;;;;;;;11.77;6.95;;;23.50;99.90;;;;;;5050621;28;20021;-87
2022/05/19 00:58:41;;;;;;;12.60;6.82;;;23.40;99.90;;;;;;5049297;28;20577;-88
2022/05/19 01:01:07;;;;;;;10.55;6.97;;;23.50;99.90;;;;;;5038482;28;20034;-87
2022/05/19 01:03:41;;;;;;;13.65;6.72;;;23.40;99.90;;;;;;5038077;28;20034;-87
2022/05/19 01:06:13;;;;;;;10.32;7.15;;;23.40;99.90;;;;;;5042656;28;20066;-86
2022/05/19 01:08:48;;;;;;;16.83;9.85;;;23.40;99.90;;;;;;5046221;28;20552;-87
2022/05/19 01:11:16;;;;;;;14.43;8.10;;;23.40;99.90;;;;;;5050193;28;20090;-87
2022/05/19 01:13:42;;;;;;;13.55;7.20;;;23.40;99.90;;;;;;5048916;28;20375;-87
2022/05/19 01:16:09;;;;;;;10.32;6.97;;;23.30;99.90;;;;;;5047315;28;20532;-87
2022/05/19 01:18:36;;;;;;;13.88;6.95;;;23.30;99.90;;;;;;5041399;28;20029;-87
2022/05/19 01:21:03;;;;;;;11.75;6.95;;;23.30;99.90;;;;;;5049752;28;20634;-87
2022/05/19 01:24:00;;;;;;;9.25;6.47;;;23.30;99.90;;;;;;5047490;28;20099;-87
2022/05/19 01:26:47;;;;;;;13.38;6.68;;;23.10;99.90;;;;;;5034923;28;20635;-87
2022/05/19 01:29:14;;;;;;;11.43;7.30;;;23.20;99.90;;;;;;5033574;28;20092;-87
2022/05/19 01:31:48;;;;;;;12.98;10.60;;;23.20;99.90;;;;;;5048426;28;20024;-87
2022/05/19 01:34:15;;;;;;;11.32;6.78;;;23.20;99.90;;;;;;5082187;28;20040;-87
2022/05/19 01:36:40;;;;;;;9.95;6.95;;;23.10;99.90;;;;;;5052091;28;20040;-86
2022/05/19 01:39:10;;;;;;;11.10;7.07;;;23.10;99.90;;;;;;5044372;28;20029;-87
2022/05/19 01:42:09;;;;;;;13.40;7.30;;;23.00;99.90;;;;;;5046093;28;20045;-87
2022/05/19 01:44:41;;;;;;;11.50;6.60;;;23.00;99.90;;;;;;5037018;28;20025;-87
2022/05/19 01:47:38;;;;;;;11.38;7.28;;;23.10;99.90;;;;;;5034193;28;20136;-87
2022/05/19 01:50:36;;;;;;;12.25;6.47;;;23.00;99.90;;;;;;5054911;28;20037;-87
2022/05/19 01:53:15;;;;;;;10.57;7.13;;;22.90;99.90;;;;;;5047507;28;20482;-86
2022/05/19 01:55:46;;;;;;;11.35;6.68;;;22.80;99.90;;;;;;5048089;28;20406;-87
2022/05/19 01:58:15;;;;;;;12.90;7.30;;;22.80;99.90;;;;;;5046841;28;20096;-87
2022/05/19 02:00:43;;;;;;;16.90;7.78;;;22.70;99.90;;;;;;5044276;28;20558;-87
2022/05/19 02:03:29;;;;;;;11.35;7.45;;;22.80;99.90;;;;;;5044039;28;20032;-87
2022/05/19 02:06:02;;;;;;;13.60;6.82;;;22.80;99.90;;;;;;5023676;28;20415;-87
2022/05/19 02:08:36;;;;;;;12.05;6.82;;;22.90;99.90;;;;;;5029083;28;20041;-87
2022/05/19 02:11:06;;;;;;;9.65;6.88;;;22.80;99.90;;;;;;5024579;28;20056;-87
2022/05/19 02:13:33;;;;;;;13.15;7.07;;;22.70;99.90;;;;;;5029849;28;20030;-87
2022/05/19 02:16:03;;;;;;;11.55;7.30;;;22.70;99.90;;;;;;5017956;28;20606;-87
2022/05/19 02:18:29;;;;;;;12.43;7.38;;;22.50;99.90;;;;;;5017681;28;20375;-87
2022/05/19 02:20:57;;;;;;;12.02;7.05;;;22.30;99.90;;;;;;5026086;28;20033;-87
2022/05/19 02:23:24;;;;;;;11.40;7.07;;;22.50;99.90;;;;;;5026848;28;20033;-87
2022/05/19 02:25:52;;;;;;;10.52;7.10;;;22.50;99.90;;;;;;5028836;28;20034;-87
2022/05/19 02:28:26;;;;;;;9.32;6.82;;;22.40;99.90;;;;;;5014487;28;20539;-87
2022/05/19 02:30:54;;;;;;;13.45;6.90;;;22.40;99.90;;;;;;5017639;28;20049;-87
2022/05/19 02:33:21;;;;;;;11.93;6.90;;;22.50;99.90;;;;;;5023073;28;20021;-87
2022/05/19 02:35:47;;;;;;;13.90;7.18;;;22.60;99.90;;;;;;5028489;28;20120;-87
2022/05/19 02:38:15;;;;;;;13.52;6.85;;;22.60;99.90;;;;;;5027023;28;20025;-87
2022/05/19 02:40:40;;;;;;;9.05;6.70;;;22.70;99.90;;;;;;5028683;28;20057;-88
2022/05/19 02:43:07;;;;;;;13.63;6.72;;;22.60;99.90;;;;;;5029309;28;20076;-87
2022/05/19 02:45:33;;;;;;;12.80;7.03;;;22.70;99.90;;;;;;5040596;28;20033;-87
2022/05/19 02:47:59;;;;;;;13.48;7.22;;;22.70;99.90;;;;;;5045294;28;20030;-87
2022/05/19 02:50:26;;;;;;;13.10;6.72;;;22.60;99.90;;;;;;5046910;28;20024;-86
2022/05/19 02:52:51;;;;;;;11.15;6.80;;;22.70;99.90;;;;;;5055450;28;20496;-87
2022/05/19 02:55:18;;;;;;;11.02;7.05;;;22.70;99.90;;;;;;5046845;28;20032;-87
2022/05/19 02:57:44;;;;;;;8.80;6.53;;;22.70;99.90;;;;;;5044668;28;20107;-87
2022/05/19 03:00:17;;;;;;;9.55;7.18;;;22.70;99.90;;;;;;5044526;28;20128;-87
2022/05/19 03:02:43;;;;;;;12.60;7.72;;;22.70;99.90;;;;;;5045136;28;20105;-87
2022/05/19 03:05:11;;;;;;;8.75;6.70;;;22.70;99.90;;;;;;5048800;28;20032;-87
2022/05/19 03:07:37;;;;;;;13.98;7.28;;;22.80;99.90;;;;;;5034877;28;20506;-86
2022/05/19 03:10:04;;;;;;;12.05;7.38;;;22.70;99.90;;;;;;5045086;28;20029;-87
2022/05/19 03:12:30;;;;;;;10.70;7.10;;;22.70;99.90;;;;;;5072798;28;20033;-87
2022/05/19 03:14:56;;;;;;;11.60;7.88;;;22.60;99.90;;;;;;5035760;28;20036;-87
2022/05/19 03:17:22;;;;;;;10.55;6.55;;;22.50;99.90;;;;;;5034414;28;20033;-87
2022/05/19 03:19:53;;;;;;;10.68;7.10;;;22.60;99.90;;;;;;5033330;28;20037;-87
2022/05/19 03:22:19;;;;;;;11.02;7.13;;;22.60;99.90;;;;;;5035647;28;20512;-87
2022/05/19 03:24:44;;;;;;;11.73;7.10;;;22.50;99.90;;;;;;5036303;28;20524;-87
2022/05/19 03:27:10;;;;;;;12.60;7.07;;;22.70;99.90;;;;;;5036242;28;20025;-87
2022/05/19 03:29:36;;;;;;;11.30;6.72;;;22.70;99.90;;;;;;5037819;28;20047;-87
2022/05/19 03:32:02;;;;;;;13.90;8.05;;;22.60;99.90;;;;;;5036102;28;20057;-87
2022/05/19 03:34:28;;;;;;;14.02;7.15;;;22.50;99.90;;;;;;5071434;28;20393;-87
2022/05/19 03:36:54;;;;;;;11.48;7.03;;;22.50;99.90;;;;;;5053542;28;20024;-87
2022/05/19 03:39:19;;;;;;;10.90;7.22;;;22.70;99.90;;;;;;5053006;28;20033;-87
2022/05/19 03:41:45;;;;;;;13.52;7.57;;;22.60;99.90;;;;;;5048021;28;20041;-87
2022/05/19 03:44:11;;;;;;;10.48;7.20;;;22.30;99.90;;;;;;5048934;28;20056;-87
2022/05/19 03:46:37;;;;;;;10.38;7.40;;;22.40;99.90;;;;;;5038709;28;20075;-87
2022/05/19 03:49:03;;;;;;;9.07;7.28;;;22.50;99.90;;;;;;5039716;28;20029;-87
2022/05/19 03:51:32;;;;;;;15.30;7.88;;;22.30;99.90;;;;;;5049077;28;20033;-87
2022/05/19 03:53:59;;;;;;;12.32;7.50;;;22.20;99.90;;;;;;5048324;28;20041;-87
2022/05/19 03:56:25;;;;;;;13.73;7.55;;;22.20;99.90;;;;;;5037898;28;20014;-87
2022/05/19 03:58:51;;;;;;;12.20;7.43;;;22.20;99.90;;;;;;5036876;28;20121;-86
2022/05/19 04:01:19;;;;;;;14.32;7.78;;;22.20;99.90;;;;;;5038615;28;20124;-87
2022/05/19 04:03:45;;;;;;;12.07;7.75;;;22.10;99.90;;;;;;5039707;28;20549;-86
2022/05/19 04:06:10;;;;;;;17.30;8.23;;;22.20;99.90;;;;;;5044953;28;20112;-87
2022/05/19 04:08:36;;;;;;;12.65;7.80;;;22.10;99.90;;;;;;5048161;28;20048;-87
2022/05/19 04:11:02;;;;;;;14.68;7.93;;;22.10;99.90;;;;;;5083836;28;20032;-87
2022/05/19 04:13:28;;;;;;;12.90;7.88;;;22.10;99.90;;;;;;5049276;28;20021;-87
2022/05/19 04:15:54;;;;;;;14.02;8.15;;;22.00;99.90;;;;;;5047715;28;20501;-87
2022/05/19 04:18:19;;;;;;;17.23;8.35;;;22.00;99.90;;;;;;5047144;28;20029;-86
2022/05/19 04:20:45;;;;;;;12.52;7.88;;;22.00;99.90;;;;;;5051825;28;20470;-87
2022/05/19 04:23:11;;;;;;;11.52;7.47;;;22.10;99.90;;;;;;5051207;28;20030;-87
2022/05/19 04:25:38;;;;;;;12.82;6.95;;;22.10;99.90;;;;;;5050145;28;20481;-87
2022/05/19 04:28:05;;;;;;;11.13;7.85;;;22.00;99.90;;;;;;5046523;28;20466;-87
2022/05/19 04:30:31;;;;;;;14.45;7.63;;;22.00;99.90;;;;;;5042980;28;20067;-87
2022/05/19 04:32:56;;;;;;;14.35;7.97;;;22.10;99.90;;;;;;5039028;28;20032;-87
2022/05/19 04:35:23;;;;;;;14.10;8.05;;;22.00;99.90;;;;;;5037561;28;20496;-87
2022/05/19 04:37:49;;;;;;;11.88;7.93;;;22.10;99.90;;;;;;5050868;28;20028;-87
2022/05/19 04:40:16;;;;;;;14.18;8.02;;;22.20;99.90;;;;;;5047945;28;20040;-87
2022/05/19 04:42:42;;;;;;;14.88;8.60;;;22.20;99.90;;;;;;5046725;28;20033;-87
2022/05/19 04:45:13;;;;;;;18.85;8.50;;;22.20;99.90;;;;;;5046852;28;20031;-88
2022/05/19 04:47:39;;;;;;;14.35;8.27;;;22.30;99.90;;;;;;5047096;28;20033;-87
2022/05/19 04:50:06;;;;;;;12.75;7.38;;;22.30;99.90;;;;;;5049711;28;20079;-87
2022/05/19 04:52:32;;;;;;;16.10;8.57;;;22.20;99.90;;;;;;5037385;28;20025;-87
2022/05/19 04:54:57;;;;;;;13.88;7.80;;;22.30;99.90;;;;;;5037965;28;20212;-87
2022/05/19 04:57:23;;;;;;;15.82;8.75;;;22.40;99.90;;;;;;5072974;28;20409;-87
2022/05/19 04:59:49;;;;;;;13.55;8.23;;;22.50;99.90;;;;;;5042472;28;20033;-87
2022/05/19 05:02:15;;;;;;;14.23;8.13;;;22.70;99.90;;;;;;5035071;28;20025;-86
2022/05/19 05:04:41;;;;;;;12.13;8.02;;;22.70;99.90;;;;;;5035453;28;20014;-87
2022/05/19 05:07:07;;;;;;;15.63;7.93;;;22.50;99.90;;;;;;5054519;28;20038;-87
2022/05/19 05:09:33;;;;;;;13.75;7.97;;;22.50;99.90;;;;;;5040599;28;20068;-87
2022/05/19 05:11:59;;;;;;;15.00;8.27;;;22.60;99.90;;;;;;5035910;28;20043;-88
2022/05/19 05:14:24;;;;;;;13.18;7.68;;;22.50;99.90;;;;;;5072669;28;20029;-88
2022/05/19 05:16:53;;;;;;;12.38;8.05;;;22.50;99.90;;;;;;5049802;28;20489;-87
2022/05/19 05:19:22;;;;;;;11.35;8.10;;;22.30;99.90;;;;;;5052918;28;20036;-93
2022/05/19 05:21:50;;;;;;;16.10;8.65;;;22.20;99.90;;;;;;5032458;28;20049;-86
2022/05/19 05:24:17;;;;;;;17.50;7.50;;;22.30;99.90;;;;;;5038554;28;20029;-88
2022/05/19 05:26:43;;;;;;;15.95;8.13;;;22.30;99.90;;;;;;5050422;28;20841;-89
2022/05/19 05:29:09;;;;;;;17.45;8.07;;;22.10;99.90;;;;;;5041353;28;20021;-88
2022/05/19 05:31:35;;;;;;;17.55;7.85;;;22.20;99.90;;;;;;5036356;28;20517;-88
2022/05/19 05:34:00;;;;;;;13.18;7.70;;;22.40;99.90;;;;;;5045101;28;20514;-89
2022/05/19 05:36:26;;;;;;;11.00;7.53;;;22.40;99.90;;;;;;5041549;28;20172;-85
2022/05/19 05:38:52;;;;;;;13.07;7.50;;;22.50;99.90;;;;;;5033675;28;20033;-87
2022/05/19 05:41:18;;;;;;;13.40;7.70;;;22.50;99.90;;;;;;5061270;28;20043;-87
2022/05/19 05:43:43;;;;;;;12.50;8.32;;;22.60;99.90;;;;;;5047027;28;20032;-91
2022/05/19 05:46:14;;;;;;;15.30;8.35;;;22.70;99.90;;;;;;5036640;28;20033;-88
2022/05/19 05:48:40;;;;;;;13.20;8.38;;;22.80;99.90;;;;;;5037637;28;20041;-91
2022/05/19 05:51:07;;;;;;;12.90;7.55;;;22.80;99.90;;;;;;5036311;28;20048;-88
2022/05/19 05:53:35;;;;;;;14.52;8.20;;;22.80;99.90;;;;;;5059261;28;20166;-89
2022/05/19 05:56:02;;;;;;;15.15;8.25;;;22.80;99.90;;;;;;5038329;28;20037;-85
2022/05/19 05:58:27;;;;;;;13.55;7.85;;;22.80;99.90;;;;;;5039955;28;20029;-90
2022/05/19 06:00:53;;;;;;;12.25;7.63;;;23.00;99.90;;;;;;5054176;28;20066;-86
2022/05/19 06:03:19;;;;;;;11.85;7.75;;;22.90;99.90;;;;;;5050974;28;20036;-88
2022/05/19 06:05:45;;;;;;;12.95;7.68;;;22.90;99.90;;;;;;5047540;28;20124;-89
2022/05/19 06:08:11;;;;;;;14.23;7.90;;;22.90;99.90;;;;;;5036597;28;20047;-89
2022/05/19 06:10:36;;;;;;;13.18;7.43;;;23.00;99.90;;;;;;5036854;28;20080;-95
2022/05/19 06:13:03;;;;;;;11.25;7.32;;;23.00;99.90;;;;;;5035721;28;20112;-92
2022/05/19 06:15:29;;;;;;;17.05;7.93;;;22.90;99.90;;;;;;5051576;28;20443;-93
2022/05/19 06:17:55;;;;;;;15.93;8.13;;;22.90;99.90;;;;;;5054301;28;20033;-92
2022/05/19 06:20:20;;;;;;;14.43;7.80;;;23.00;99.90;;;;;;5036153;28;20087;-91
2022/05/19 06:22:47;;;;;;;15.63;7.47;;;23.10;99.90;;;;;;5050692;28;20063;-91
2022/05/19 06:25:18;;;;;;;17.40;8.05;;;23.20;99.90;;;;;;5039028;28;20041;-91
2022/05/19 06:27:44;;;;;;;11.57;7.40;;;23.50;99.90;;;;;;5040950;28;20029;-93
2022/05/19 06:30:12;;;;;;;14.23;7.13;;;23.40;99.90;;;;;;5038758;28;20029;-93
2022/05/19 06:32:39;;;;;;;15.00;7.25;;;23.50;99.90;;;;;;5045846;28;20021;-86
2022/05/19 06:35:05;;;;;;;15.60;7.30;;;23.50;99.90;;;;;;5047798;28;20112;-85
2022/05/19 06:37:31;;;;;;;14.82;7.30;;;23.50;99.90;;;;;;5058626;28;20565;-85
2022/05/19 06:39:57;;;;;;;14.40;7.00;;;23.70;99.90;;;;;;5046453;28;20112;-88
2022/05/19 06:42:23;;;;;;;16.17;7.22;;;23.80;99.90;;;;;;5045391;28;20056;-86
2022/05/19 06:44:49;;;;;;;12.32;6.70;;;23.80;99.90;;;;;;5043424;28;20086;-86
2022/05/19 06:47:15;;;;;;;17.88;7.88;;;23.80;99.90;;;;;;5032980;28;20430;-85
2022/05/19 06:49:43;;;;;;;14.43;7.45;;;23.80;99.90;;;;;;5035270;28;20032;-85
2022/05/19 06:52:24;;;;;;;10.50;7.07;;;23.80;99.90;;;;;;5048546;28;20029;-84
2022/05/19 06:54:53;;;;;;;11.90;7.05;;;23.90;99.90;;;;;;5045136;28;20044;-84
2022/05/19 06:57:21;;;;;;;12.60;7.05;;;24.20;99.90;;;;;;5044896;28;20524;-85
2022/05/19 06:59:49;;;;;;;12.50;7.10;;;24.30;99.90;;;;;;5044924;28;20041;-85
2022/05/19 07:02:15;;;;;;;12.23;6.53;;;24.30;99.90;;;;;;5049219;28;20033;-85
2022/05/19 07:04:41;;;;;;;12.13;6.63;;;24.30;99.90;;;;;;5050219;28;20154;-84
2022/05/19 07:07:07;;;;;;;11.20;6.88;;;24.30;99.90;;;;;;5040798;28;20057;-85
2022/05/19 07:09:34;;;;;;;11.13;6.97;;;24.30;99.90;;;;;;5040897;28;20025;-85
2022/05/19 07:12:00;;;;;;;11.80;7.25;;;24.40;99.90;;;;;;5041157;28;20025;-84
2022/05/19 07:14:27;;;;;;;11.50;6.20;;;24.70;99.90;;;;;;5037935;28;20026;-85
2022/05/19 07:16:53;;;;;;;9.68;7.00;;;24.70;99.90;;;;;;5053902;28;20092;-84
2022/05/19 07:22:08;;;;;;;12.25;6.70;;;24.70;99.90;;;;;;5040721;28;20048;-84
2022/05/19 07:24:34;;;;;;;12.57;6.90;;;24.70;99.90;;;;;;5040876;28;20546;-84
2022/05/19 07:27:00;;;;;;;9.50;6.20;;;24.60;99.90;;;;;;5040661;28;20504;-85
2022/05/19 07:29:27;;;;;;;10.80;6.18;;;24.70;99.90;;;;;;5038248;28;20624;-85
2022/05/19 07:31:58;;;;;;;11.18;6.25;;;24.70;99.90;;;;;;5055459;28;20025;-85
2022/05/19 07:34:24;;;;;;;9.80;6.78;;;24.70;99.90;;;;;;5039511;28;20048;-84
2022/05/19 07:36:50;;;;;;;12.82;6.30;;;24.70;99.90;;;;;;5040468;28;20124;-84
2022/05/19 07:39:16;;;;;;;11.32;6.38;;;24.80;99.90;;;;;;5040580;28;20021;-85
2022/05/19 07:41:42;;;;;;;13.02;6.57;;;24.80;99.90;;;;;;5040459;28;20047;-85
2022/05/19 07:44:08;;;;;;;12.73;6.07;;;24.90;99.90;;;;;;5036005;28;20021;-84
2022/05/19 07:46:36;;;;;;;13.43;6.05;;;24.90;99.90;;;;;;5050868;28;20071;-84
2022/05/19 07:49:03;;;;;;;10.88;6.25;;;25.00;99.90;;;;;;5040379;28;20367;-83
2022/05/19 07:51:36;;;;;;;10.43;6.05;;;25.10;99.90;;;;;;5040496;28;20367;-84
2022/05/19 07:54:08;;;;;;;11.13;6.43;;;24.90;99.90;;;;;;5043381;28;20087;-85
2022/05/19 07:56:34;;;;;;;10.32;5.63;;;24.80;99.90;;;;;;5039352;28;20048;-84
2022/05/19 07:59:01;;;;;;;12.88;6.10;;;24.90;99.90;;;;;;5036710;28;20079;-85
2022/05/19 08:01:27;;;;;;;12.05;6.60;;;24.60;99.90;;;;;;5053661;28;20045;-85
2022/05/19 08:03:52;;;;;;;14.38;6.00;;;24.40;99.90;;;;;;5048062;28;20029;-85
2022/05/19 08:06:18;;;;;;;12.90;6.00;;;24.50;99.90;;;;;;5045413;28;20034;-85
2022/05/19 08:08:44;;;;;;;9.20;5.95;;;24.50;99.90;;;;;;5039721;28;20035;-84
2022/05/19 08:11:10;;;;;;;8.88;6.03;;;24.40;99.90;;;;;;5035766;28;20028;-85
2022/05/19 08:16:21;;;;;;;9.00;5.57;;;24.40;99.90;;;;;;5039264;28;20075;-84
2022/05/19 08:18:46;;;;;;;11.45;5.93;;;24.80;99.90;;;;;;5039454;28;20029;-84
2022/05/19 08:21:13;;;;;;;14.70;5.85;;;24.90;99.90;;;;;;5041715;28;20033;-85
2022/05/19 08:23:41;;;;;;;10.38;6.00;;;24.90;99.90;;;;;;5051281;28;20025;-85
2022/05/19 08:26:10;;;;;;;10.57;6.10;;;25.30;99.90;;;;;;5035608;28;20028;-85
2022/05/19 08:28:38;;;;;;;11.57;6.18;;;25.20;99.90;;;;;;5050405;28;20032;-84
2022/05/19 08:31:16;;;;;;;14.10;6.30;;;25.40;99.90;;;;;;5039771;28;20036;-84
2022/05/19 08:33:44;;;;;;;10.10;6.22;;;25.40;99.90;;;;;;5039145;28;20383;-85
2022/05/19 08:36:11;;;;;;;11.65;5.65;;;25.40;99.90;;;;;;5048316;28;20417;-85
2022/05/19 08:38:38;;;;;;;10.77;5.57;;;25.60;99.90;;;;;;5048497;28;20021;-84
2022/05/19 08:41:08;;;;;;;12.15;5.38;;;25.60;99.90;;;;;;5051763;28;20494;-85
2022/05/19 08:43:58;;;;;;;9.48;5.22;;;25.70;99.90;;;;;;5049869;28;20385;-84
2022/05/19 08:46:30;;;;;;;10.35;5.60;;;25.70;99.90;;;;;;5038780;28;20029;-84
2022/05/19 08:48:59;;;;;;;11.85;5.65;;;25.80;99.90;;;;;;5039725;28;20498;-85
2022/05/19 08:51:31;;;;;;;12.93;5.82;;;25.90;99.90;;;;;;5053062;28;20286;-84
2022/05/19 08:54:04;;;;;;;9.18;6.15;;;25.60;99.90;;;;;;5047544;28;20021;-85
2022/05/19 08:56:42;;;;;;;10.65;5.88;;;25.70;99.90;;;;;;5048924;28;20044;-85
2022/05/19 08:59:23;;;;;;;12.05;5.97;;;25.70;99.90;;;;;;5036337;28;20025;-85
2022/05/19 09:02:01;;;;;;;9.80;5.80;;;26.00;99.90;;;;;;5049979;28;20474;-84
2022/05/19 09:04:46;;;;;;;12.32;6.05;;;26.00;99.90;;;;;;5047676;28;20094;-85
2022/05/19 09:10:29;;;;;;;7.78;5.50;;;26.40;99.90;;;;;;5039057;28;20452;-84
2022/05/19 09:13:18;;;;;;;7.47;5.65;;;26.30;99.90;;;;;;5038841;28;20022;-85
2022/05/19 09:15:45;;;;;;;9.07;5.55;;;26.60;99.90;;;;;;5035524;28;20045;-85
2022/05/19 09:18:14;;;;;;;11.77;6.25;;;26.60;99.90;;;;;;5038671;28;20482;-85
2022/05/19 09:20:56;;;;;;;11.35;5.43;;;26.90;99.90;;;;;;5047457;28;20092;-85
2022/05/19 09:23:23;;;;;;;8.68;5.22;;;27.20;99.90;;;;;;5035917;28;20048;-84
2022/05/19 09:26:05;;;;;;;10.65;5.40;;;27.40;99.90;;;;;;5049151;28;20429;-84
2022/05/19 09:28:31;;;;;;;9.05;5.63;;;27.30;99.90;;;;;;5037788;28;20372;-85
2022/05/19 09:30:57;;;;;;;9.77;6.13;;;27.10;99.90;;;;;;5038126;28;20033;-85
2022/05/19 09:33:44;;;;;;;9.95;5.40;;;26.90;99.90;;;;;;5038544;28;20018;-85
2022/05/19 09:36:13;;;;;;;10.38;5.25;;;27.00;99.90;;;;;;5041237;28;20535;-85
2022/05/19 09:38:48;;;;;;;7.20;5.18;;;27.20;99.90;;;;;;5058400;28;20026;-85
2022/05/19 09:41:28;;;;;;;11.02;5.30;;;27.20;99.90;;;;;;5034804;28;20042;-85
2022/05/19 09:43:58;;;;;;;9.38;5.65;;;27.20;99.90;;;;;;5035211;28;20075;-85
2022/05/19 09:46:30;;;;;;;12.35;5.85;;;26.90;99.90;;;;;;5036024;28;20029;-85
2022/05/19 09:49:05;;;;;;;10.38;6.40;;;26.90;99.90;;;;;;5038060;28;20490;-85
2022/05/19 09:51:40;;;;;;;9.10;5.68;;;26.90;99.90;;;;;;5047252;28;20057;-85
2022/05/19 09:54:06;;;;;;;10.05;5.63;;;27.20;99.90;;;;;;5046345;28;20037;-85
2022/05/19 09:56:45;;;;;;;9.30;5.45;;;27.30;99.90;;;;;;5047463;28;20494;-84
2022/05/19 09:59:18;;;;;;;7.72;5.20;;;27.20;99.90;;;;;;5036154;28;20031;-85
2022/05/19 10:01:48;;;;;;;7.68;5.32;;;27.00;99.90;;;;;;5054851;28;20515;-85
2022/05/19 10:04:25;;;;;;;9.13;5.57;;;27.00;99.90;;;;;;5046210;28;20070;-85
2022/05/19 10:06:57;;;;;;;9.38;5.45;;;27.00;99.90;;;;;;5038444;28;20557;-84
2022/05/19 10:09:39;;;;;;;8.95;5.82;;;27.10;99.90;;;;;;5046826;28;20036;-85
2022/05/19 10:12:09;;;;;;;10.05;6.22;;;27.20;99.90;;;;;;5046085;28;20041;-85
2022/05/19 10:14:36;;;;;;;10.32;5.53;;;27.40;99.90;;;;;;5046533;28;20071;-85
2022/05/19 10:17:14;;;;;;;9.95;5.55;;;27.40;99.90;;;;;;5050022;28;20070;-84
2022/05/19 10:19:46;;;;;;;10.57;5.45;;;27.30;99.90;;;;;;5048499;28;20029;-84
2022/05/19 10:22:43;;;;;;;9.18;5.47;;;27.30;99.90;;;;;;5047391;28;20556;-85
2022/05/19 10:25:25;;;;;;;9.07;5.50;;;27.60;99.90;;;;;;5037748;28;20021;-85
2022/05/19 10:31:06;;;;;;;10.82;5.45;;;28.20;99.90;;;;;;5037450;28;20464;-84
2022/05/19 10:33:45;;;;;;;8.85;5.47;;;28.20;99.90;;;;;;5037392;28;20026;-85
2022/05/19 10:36:35;;;;;;;11.90;5.90;;;28.10;99.90;;;;;;5038738;28;20030;-85
2022/05/19 10:39:19;;;;;;;9.52;5.65;;;28.10;99.90;;;;;;5053940;28;20036;-85
2022/05/19 10:42:03;;;;;;;8.77;5.35;;;28.40;99.90;;;;;;5045524;28;20506;-84
2022/05/19 10:44:56;;;;;;;11.63;5.28;;;28.40;99.90;;;;;;5046962;28;20033;-85
2022/05/19 10:47:56;;;;;;;6.43;5.30;;;28.50;99.90;;;;;;5034670;28;20033;-85
2022/05/19 10:50:36;;;;;;;8.25;5.50;;;28.60;99.90;;;;;;5034590;28;20100;-85
2022/05/19 10:53:08;;;;;;;10.98;5.75;;;28.50;99.90;;;;;;5064106;28;20025;-85
2022/05/19 10:55:43;;;;;;;9.77;5.28;;;28.60;99.90;;;;;;5047814;28;20025;-85
2022/05/19 10:58:36;;;;;;;7.53;5.30;;;28.70;99.90;;;;;;5037084;28;20090;-85
2022/05/19 11:01:18;;;;;;;10.38;5.50;;;29.00;99.90;;;;;;5037021;28;20076;-84
2022/05/19 11:03:59;;;;;;;9.35;5.40;;;29.20;99.90;;;;;;5037131;28;20029;-85
2022/05/19 11:06:55;;;;;;;11.73;6.15;;;29.50;99.90;;;;;;5041610;28;20028;-85
2022/05/19 11:09:51;;;;;;;11.75;5.35;;;29.70;99.90;;;;;;5045337;28;20035;-85
2022/05/19 11:12:35;;;;;;;7.97;5.15;;;29.60;99.90;;;;;;5045059;28;20021;-85
2022/05/19 11:15:33;;;;;;;13.77;5.28;;;29.70;99.90;;;;;;5045428;28;20040;-85
2022/05/19 11:18:10;;;;;;;11.52;5.10;;;29.70;99.90;;;;;;5029014;28;20029;-85
2022/05/19 11:21:03;;;;;;;13.23;5.13;;;29.60;99.90;;;;;;5027033;28;20045;-84
2022/05/19 11:23:39;;;;;;;7.03;5.40;;;29.30;99.90;;;;;;5012716;28;20025;-85
2022/05/19 11:26:23;;;;;;;10.35;5.32;;;29.20;99.90;;;;;;5029202;28;20037;-85
2022/05/19 11:28:56;;;;;;;8.13;5.63;;;29.10;99.90;;;;;;5026959;28;20050;-85
2022/05/19 11:31:33;;;;;;;8.35;5.38;;;28.90;99.90;;;;;;5014359;28;20041;-85
2022/05/19 11:34:01;;;;;;;9.27;5.47;;;28.80;99.90;;;;;;5017526;28;20100;-85
2022/05/19 11:36:41;;;;;;;7.68;5.45;;;28.90;99.90;;;;;;5027963;28;20041;-85
2022/05/19 11:39:18;;;;;;;9.00;5.40;;;28.90;99.90;;;;;;5028930;28;20026;-85
2022/05/19 11:41:47;;;;;;;6.18;5.40;;;28.70;99.90;;;;;;5028432;28;20050;-85
2022/05/19 11:44:25;;;;;;;8.65;5.30;;;28.90;99.90;;;;;;5029096;28;20513;-85
2022/05/19 11:46:54;;;;;;;7.78;4.97;;;29.10;99.90;;;;;;5013330;28;20037;-85
2022/05/19 11:55:47;;;;;;;8.65;5.38;;;29.80;99.90;;;;;;5039409;28;20064;-85
2022/05/19 11:58:20;;;;;;;8.63;4.82;;;30.10;99.90;;;;;;5049944;28;20059;-85
2022/05/19 12:00:52;;;;;;;8.63;5.40;;;30.30;99.90;;;;;;5048754;28;20049;-86
2022/05/19 12:03:28;;;;;;;6.00;4.68;;;30.20;99.90;;;;;;5047228;28;20025;-85
2022/05/19 12:06:16;;;;;;;7.45;5.18;;;30.30;99.90;;;;;;5047956;28;20142;-85
2022/05/19 12:08:55;;;;;;;11.30;5.85;;;30.40;99.90;;;;;;5057334;28;20030;-85
2022/05/19 12:11:30;;;;;;;9.75;5.50;;;30.70;99.90;;;;;;5050928;28;20032;-85
2022/05/19 12:14:40;;;;;;;10.98;5.20;;;30.10;99.90;;;;;;5051441;28;20017;-85
2022/05/19 12:17:06;;;;;;;6.22;5.15;;;29.90;99.90;;;;;;5035733;28;20036;-85
2022/05/19 12:19:47;;;;;;;8.90;5.15;;;30.20;99.90;;;;;;5039039;28;20083;-86
2022/05/19 12:22:34;;;;;;;7.63;5.15;;;30.00;99.90;;;;;;5060107;28;20037;-85
2022/05/19 12:25:00;;;;;;;7.75;5.18;;;29.90;99.90;;;;;;5047744;28;20024;-85
2022/05/19 12:27:56;;;;;;;8.10;5.20;;;29.90;99.90;;;;;;5047993;28;20087;-85
2022/05/19 12:33:29;;;;;;;8.00;4.85;;;29.70;99.90;;;;;;5048121;28;20036;-85
2022/05/19 12:36:26;;;;;;;7.97;4.72;;;30.00;99.90;;;;;;5047239;28;20116;-85
2022/05/19 12:38:52;;;;;;;8.90;4.60;;;31.10;99.90;;;;;;5055229;28;20041;-85
2022/05/19 12:41:24;;;;;;;6.07;4.45;;;30.60;99.90;;;;;;5051053;28;20036;-85
2022/05/19 12:43:51;;;;;;;7.88;5.22;;;30.10;99.90;;;;;;5050384;28;20119;-85
2022/05/19 12:46:38;;;;;;;7.15;4.65;;;29.90;99.90;;;;;;5049665;28;20025;-85
2022/05/19 12:49:31;;;;;;;9.85;4.80;;;29.90;99.90;;;;;;5039456;28;20029;-85
2022/05/19 12:52:09;;;;;;;11.20;4.47;;;31.10;99.90;;;;;;5047709;28;20053;-85
2022/05/19 12:54:36;;;;;;;9.35;4.80;;;32.20;99.90;;;;;;5049978;28;20028;-85
2022/05/19 12:57:07;;;;;;;11.88;5.25;;;32.10;99.90;;;;;;5047618;28;20103;-85
2022/05/19 13:00:05;;;;;;;6.53;5.20;;;32.20;99.90;;;;;;5037883;28;20052;-85
2022/05/19 13:02:53;;;;;;;14.85;5.22;;;32.40;99.90;;;;;;5036387;28;20453;-85
2022/05/19 13:05:33;;;;;;;8.52;4.93;;;32.40;99.90;;;;;;5035356;28;20029;-85
2022/05/19 13:08:09;;;;;;;7.53;4.45;;;32.50;99.90;;;;;;5049937;28;20040;-85
2022/05/19 13:10:46;;;;;;;8.48;4.90;;;32.40;99.90;;;;;;5048727;28;20071;-85
2022/05/19 13:13:34;;;;;;;7.05;5.03;;;32.10;99.90;;;;;;5048389;28;20112;-85
2022/05/19 13:16:16;;;;;;;7.88;4.60;;;32.80;99.90;;;;;;5047037;28;20055;-85
2022/05/19 13:18:47;;;;;;;9.75;5.35;;;33.30;99.90;;;;;;5047044;28;20390;-85
2022/05/19 13:21:24;;;;;;;10.10;5.05;;;33.00;99.90;;;;;;5045703;28;20033;-85
2022/05/19 13:23:51;;;;;;;8.73;5.18;;;32.70;99.90;;;;;;5038409;28;20021;-85
2022/05/19 13:26:29;;;;;;;10.43;5.20;;;32.70;99.90;;;;;;5035366;28;20083;-85